Details From UUDD - Moscou Domodedovo
To UBBG - Ganja
Flight Number -
Tags Generated
Created
Modified
Stats Distance 943 nm / 1,747 km
Max Altitude 0 ft / 0 m
Waypoints 6
Social Downloads 0
Likes 0
Share VATSIM

Download

Looking for another format? Having issues loading an existing format? Contact us
Advertisement - Login to hide

Notes

Generated

Route

UUDD MATKA LIRBA BUDUN ZW UBBG

ID Type Via Altitude Latitude Longitude Leg Dist Tot Dist Heading (true) Name
O UUDD APT - 0 ft / 0 m 55.42000˚ 37.88000˚ - 0 nm - -
MATKA FIX - 0 ft / 0 m 51.97167˚ 40.34500˚ 224 nm 224 nm 156° / 158° -
LIRBA FIX - 0 ft / 0 m 48.26667˚ 42.48333˚ 237 nm 462 nm 159° / 161° -
BUDUN FIX - 0 ft / 0 m 44.78333˚ 44.16667˚ 220 nm 682 nm 161° / 162° -
ZW NDB - 0 ft / 0 m 40.76667˚ 46.26900˚ 258 nm 940 nm 158° / 160° GANJA NDB
O UBBG APT - 0 ft / 0 m 40.74464˚ 46.30592˚ 2 nm 943 nm 128° / 128° -

Altitude Profile

Advertisement - Login to hide

Weather


0- 5 10 15 20 25 30 35+ Temperature / ° C

Clouds and Precipitation
Forecast for 2018-05-26 00:00 UTC. Updated 5 minutes ago

Ground ~20,000 ft ~40,000 ft Winds

UUDD

Details ICAO UUDD (DME)
Name Moscou Domodedovo
Region Russia
Timezone Europe/Moscow (UTC+3.0)
Stats Elevation 588 ft / 179 m (AMSL)
Location 55.409191° 37.901432°
Runways 3
Magnetic Variation 11.080° E

METAR

UUDD 252300Z VRB01MPS CAVOK 09/03 Q1031 R32L/010095 NOSIG

Decode

TAF

TAF UUDD 251957Z 2521/2703 05003MPS 9999 SCT040 TX20/2613Z TN05/2602Z BECMG 2622/2624 25005MPS

Decode

Departure Runways

ID Width Length Bearing (true) Bearing (mag) Surface Threshold Offset Overrun Length
14C 148 ft / 45 m 8,754 ft / 2,668 m 146.47° 135.39° Concrete 0 ft / 0 m 0 ft / 0 m
14L 174 ft / 53 m 12,382 ft / 3,774 m 145.59° 134.51° Concrete 0 ft / 0 m 0 ft / 0 m
14R 230 ft / 70 m 11,395 ft / 3,473 m 145.45° 134.37° Concrete 0 ft / 0 m 0 ft / 0 m
32C 148 ft / 45 m 8,754 ft / 2,668 m 326.49° 315.41° Concrete 0 ft / 0 m 0 ft / 0 m
32L 230 ft / 70 m 11,395 ft / 3,473 m 325.48° 314.40° Concrete 0 ft / 0 m 0 ft / 0 m
32R 174 ft / 53 m 12,382 ft / 3,774 m 325.61° 314.53° Concrete 0 ft / 0 m 0 ft / 0 m

UBBG

Details ICAO UBBG (KVD)
Name GANJA
Region Azerbiajan
Timezone Asia/Baku (UTC+4.0)
Stats Elevation 1,083 ft / 330 m (AMSL)
Location 40.737676° 46.317582°
Runways 1
Magnetic Variation 6.405° E

METAR

UBBG 252300Z 20006KT 9999 SCT100 22/11 Q1008 R30/CLRD// NOSIG

Decode

TAF

Not found

Destination Runways

ID Width Length Bearing (true) Bearing (mag) Surface Threshold Offset Overrun Length
12 144 ft / 44 m 8,211 ft / 2,503 m 128.25° 121.84° Concrete 0 ft / 0 m 0 ft / 0 m
30 144 ft / 44 m 8,211 ft / 2,503 m 308.26° 301.85° Concrete 0 ft / 0 m 1,630 ft / 497 m